Aviation Digital Data Service (ADDS)

Output produced by METARs form (1930 UTC 18 January 2018)
found at http://aviationweather.gov/adds/metars/
 
METAR text: KGOO 181915Z AUTO 15005KT 10SM SCT090 BKN110 10/05 A3011 RMK AO1
Conditions at: KGOO (GRASS VALLEY , CA, US) observed 1915 UTC 18 January 2018
Temperature: 10.0°C (50°F)
Dewpoint: 5.0°C (41°F) [RH = 71%]
Pressure (altimeter): 30.11 inches Hg (1019.7 mb)
Winds: from the SSE (150 degrees) at 6 MPH (5 knots; 2.6 m/s)
Visibility: 10 or more miles (16+ km)
Ceiling: 11000 feet AGL
Clouds: scattered clouds at 9000 feet AGL
broken clouds at 11000 feet AGL
Weather: automated observation with no human augmentation;
there may or may not be significant weather present at this time